Terminal Aerodrome Forecast
Issued by NWS

Home | Current Version | Previous Version | Text Only | Print | Product List | Glossary On
Versions: 1 2 3 4 5 6 7 8 9 10 11 12 13 14 15 16 17 18 19 20 21 22 23 24 25 26 27 28 29 30 31 32 33 34 35 36 37 38
403
FTUS43 KGRB 202131 AAA
TAFRHI
TAF AMD
KRHI 202131Z 2022/2118 08011G15KT P6SM -RA SCT025 BKN045
      TEMPO 2022/2023 4SM -RA BR BKN022
     FM202300 09009G19KT 5SM -RA BR OVC017
     FM210200 10009G19KT 3SM SHRA BR OVC007
     FM210500 11007G15KT 3SM -SHRA BR OVC005
     FM210800 15006KT 6SM -SHRA BR OVC004
     FM211600 21008G15KT P6SM -SHRA OVC007=

USA.gov is the U.S. government's official web portal to all federal, state and local government web resources and services.